Conowingo, Maryland
Current Conditions -  °F | °C
As of 1:55 PM on Thursday 18 Dec 2014 (Local Time) from KAPG Reporting Station
Broken Clouds Broken Clouds  
Wind Chill: 32°   Ceiling: 4000
Heat Index: 39°   Visibility: 7mi
Dew Point: 19°   Wind: 13mph
Humidity: 45%   Direction: 310°NW
Pressure: 30.07"   Gusts: 24mph
Location:  39.68°N, 76.16°W
Report Text: KAPG 181855Z 31011G21KT 7SM BKN040 04/M07 A3007
Loading
Personal Weather Stations






























Interactive Weather Map New forecast layout! Learn more

10-Day Weather Forecast

Advertisements
Track Severe Weather on mobile